Time;durP1;ratioP1;P1;durP2;ratioP2;P2;SDS_P1;SDS_P2;PMS_P1;PMS_P2;Temp;Humidity;BMP_temperature;BMP_pressure;BME280_temperature;BME280_humidity;BME280_pressure;Samples;Min_cycle;Max_cycle;Signal;HPM_P1;HPM_P2
2022/07/29 00:00:10;;;;;;;1.90;1.00;;;15.90;99.90;;;;;;4972675;28;20054;-79
2022/07/29 00:02:36;;;;;;;1.98;1.00;;;15.80;99.90;;;;;;4981286;28;20038;-79
2022/07/29 00:05:02;;;;;;;1.73;1.00;;;15.80;99.90;;;;;;4991172;28;20063;-79
2022/07/29 00:07:28;;;;;;;2.78;0.90;;;15.80;99.90;;;;;;4987687;28;20056;-79
2022/07/29 00:09:54;;;;;;;2.22;1.00;;;15.80;99.90;;;;;;4986322;28;20402;-78
2022/07/29 00:12:21;;;;;;;2.58;1.02;;;15.80;99.90;;;;;;4986918;28;20045;-78
2022/07/29 00:14:47;;;;;;;2.17;0.98;;;15.80;99.90;;;;;;4986155;28;20037;-78
2022/07/29 00:17:12;;;;;;;2.72;1.13;;;15.80;99.90;;;;;;4986713;28;20111;-78
2022/07/29 00:19:38;;;;;;;3.17;1.00;;;15.80;99.90;;;;;;5001782;28;20553;-78
2022/07/29 00:22:04;;;;;;;2.28;1.10;;;15.80;99.90;;;;;;4992694;28;20037;-77
2022/07/29 00:24:30;;;;;;;2.60;0.90;;;15.80;99.90;;;;;;4990909;28;20072;-78
2022/07/29 00:26:55;;;;;;;3.17;1.15;;;15.80;99.90;;;;;;4970453;28;20126;-78
2022/07/29 00:29:21;;;;;;;1.70;1.00;;;15.80;99.90;;;;;;4986534;28;20073;-77
2022/07/29 00:31:47;;;;;;;2.15;0.90;;;15.80;99.90;;;;;;4988350;28;20049;-78
2022/07/29 00:36:57;;;;;;;2.33;1.00;;;15.80;99.90;;;;;;4989112;28;20061;-77
2022/07/29 00:39:23;;;;;;;5.57;1.83;;;15.80;99.90;;;;;;5002019;28;20061;-78
2022/07/29 00:41:50;;;;;;;2.97;0.90;;;15.80;99.90;;;;;;4984756;28;20049;-78
2022/07/29 00:44:16;;;;;;;1.92;1.05;;;15.80;99.90;;;;;;5003369;28;20046;-78
2022/07/29 00:46:41;;;;;;;3.97;1.35;;;15.80;99.90;;;;;;5001205;28;20456;-78
2022/07/29 00:49:07;;;;;;;2.13;1.08;;;15.80;99.90;;;;;;4991029;28;20092;-78
2022/07/29 00:51:36;;;;;;;2.63;1.27;;;15.80;99.90;;;;;;4984961;28;20081;-78
2022/07/29 00:54:03;;;;;;;3.08;1.20;;;15.90;99.90;;;;;;5001170;28;20054;-77
2022/07/29 00:56:33;;;;;;;1.98;1.02;;;15.80;99.90;;;;;;4984278;28;20517;-78
2022/07/29 00:58:59;;;;;;;2.72;1.20;;;15.80;99.90;;;;;;4993040;28;20608;-78
2022/07/29 01:01:26;;;;;;;2.85;0.90;;;15.80;99.90;;;;;;4993325;28;20056;-78
2022/07/29 01:03:52;;;;;;;2.38;1.00;;;15.80;99.90;;;;;;4985542;28;20124;-78
2022/07/29 01:06:18;;;;;;;3.60;1.10;;;15.70;99.90;;;;;;4975910;28;20077;-77
2022/07/29 01:08:46;;;;;;;2.63;1.40;;;15.80;99.90;;;;;;4971304;28;20057;-78
2022/07/29 01:11:13;;;;;;;2.58;1.23;;;15.70;99.90;;;;;;4985966;28;20050;-78
2022/07/29 01:13:40;;;;;;;3.15;1.25;;;15.70;99.90;;;;;;4992327;28;20080;-78
2022/07/29 01:16:32;;;;;;;3.80;1.33;;;15.70;99.90;;;;;;4986208;28;20588;-77
2022/07/29 01:19:13;;;;;;;2.67;1.40;;;15.70;99.90;;;;;;4986306;28;20483;-78
2022/07/29 01:21:59;;;;;;;3.20;1.30;;;15.70;99.90;;;;;;5003312;28;20058;-78
2022/07/29 01:24:52;;;;;;;4.60;1.52;;;15.70;99.90;;;;;;5001366;28;20476;-78
2022/07/29 01:27:22;;;;;;;2.13;1.33;;;15.70;99.90;;;;;;4986319;28;20057;-78
2022/07/29 01:29:57;;;;;;;4.68;1.40;;;15.70;99.90;;;;;;4988785;28;20119;-77
2022/07/29 01:32:27;;;;;;;2.73;1.43;;;15.60;99.90;;;;;;4993947;28;20056;-78
2022/07/29 01:35:02;;;;;;;3.33;1.40;;;15.60;99.90;;;;;;4988147;28;20046;-78
2022/07/29 01:38:05;;;;;;;2.83;1.42;;;15.60;99.90;;;;;;5004106;28;20049;-78
2022/07/29 01:40:44;;;;;;;3.35;1.48;;;15.70;99.90;;;;;;5005250;28;20046;-78
2022/07/29 01:43:16;;;;;;;3.85;1.40;;;15.60;99.90;;;;;;5003113;28;20399;-77
2022/07/29 01:45:44;;;;;;;2.75;1.50;;;15.60;99.90;;;;;;5006084;28;20045;-78
2022/07/29 01:48:19;;;;;;;2.13;1.23;;;15.60;99.90;;;;;;4989543;28;20101;-77
2022/07/29 01:51:04;;;;;;;4.95;1.60;;;15.60;99.90;;;;;;4993596;28;20049;-78
2022/07/29 01:53:46;;;;;;;2.85;1.20;;;15.60;99.90;;;;;;4997202;28;20045;-78
2022/07/29 01:56:13;;;;;;;2.33;1.30;;;15.60;99.90;;;;;;5006734;28;20182;-78
2022/07/29 01:58:41;;;;;;;3.33;1.38;;;15.70;99.90;;;;;;5004772;28;20118;-77
2022/07/29 02:01:09;;;;;;;2.72;1.50;;;15.60;99.90;;;;;;5003341;28;20049;-77
2022/07/29 02:03:37;;;;;;;2.78;1.40;;;15.60;99.90;;;;;;5003970;28;20054;-77
2022/07/29 02:06:07;;;;;;;3.03;1.75;;;15.60;99.90;;;;;;4996596;28;20045;-78
2022/07/29 02:08:34;;;;;;;2.25;1.13;;;15.60;99.90;;;;;;5003565;28;20066;-78
2022/07/29 02:11:01;;;;;;;1.92;1.38;;;15.60;99.90;;;;;;4988650;28;20601;-78
2022/07/29 02:13:28;;;;;;;2.80;1.30;;;15.50;99.90;;;;;;4980511;28;20046;-77
2022/07/29 02:15:56;;;;;;;2.95;1.60;;;15.60;99.90;;;;;;5003588;28;20045;-80
2022/07/29 02:18:25;;;;;;;3.53;1.30;;;15.50;99.90;;;;;;4986276;28;20085;-78
2022/07/29 02:20:54;;;;;;;4.28;1.63;;;15.60;99.90;;;;;;5009587;28;20082;-78
2022/07/29 02:23:22;;;;;;;2.08;1.25;;;15.60;99.90;;;;;;5020188;28;20042;-78
2022/07/29 02:25:55;;;;;;;2.42;1.33;;;15.60;99.90;;;;;;4988968;28;20060;-78
2022/07/29 02:28:24;;;;;;;2.97;1.42;;;15.60;99.90;;;;;;4987629;28;20053;-77
2022/07/29 02:30:52;;;;;;;3.03;1.30;;;15.60;99.90;;;;;;4987168;28;20053;-77
2022/07/29 02:33:19;;;;;;;1.90;1.20;;;15.50;99.90;;;;;;4994798;28;20057;-77
2022/07/29 02:35:47;;;;;;;2.42;1.42;;;15.60;99.90;;;;;;5002535;28;20052;-78
2022/07/29 02:41:11;;;;;;;1.90;1.40;;;15.50;99.90;;;;;;5003991;28;20046;-78
2022/07/29 02:43:37;;;;;;;3.10;1.50;;;15.50;99.90;;;;;;4987795;28;20064;-77
2022/07/29 02:46:11;;;;;;;2.00;1.38;;;15.50;99.90;;;;;;5002936;28;20053;-78
2022/07/29 02:49:17;;;;;;;2.97;1.60;;;15.50;99.90;;;;;;4987992;28;20046;-78
2022/07/29 02:51:46;;;;;;;2.63;1.35;;;15.50;99.90;;;;;;4988497;28;20062;-78
2022/07/29 02:54:51;;;;;;;3.00;1.25;;;15.50;99.90;;;;;;5003147;28;20046;-78
2022/07/29 02:57:22;;;;;;;3.53;1.75;;;15.50;99.90;;;;;;4970582;28;20057;-78
2022/07/29 02:59:51;;;;;;;4.10;1.60;;;15.50;99.90;;;;;;5002984;28;20079;-78
2022/07/29 03:02:18;;;;;;;3.65;1.63;;;15.50;99.90;;;;;;4984079;28;20045;-78
2022/07/29 03:04:45;;;;;;;2.95;1.52;;;15.50;99.90;;;;;;4979627;28;20141;-78
2022/07/29 03:07:14;;;;;;;3.08;1.50;;;15.50;99.90;;;;;;4986741;28;20111;-78
2022/07/29 03:09:42;;;;;;;2.95;1.60;;;15.50;99.90;;;;;;5003848;28;20037;-79
2022/07/29 03:12:08;;;;;;;5.13;1.75;;;15.50;99.90;;;;;;5001496;28;20077;-77
2022/07/29 03:14:35;;;;;;;2.03;1.50;;;15.50;99.90;;;;;;4993890;28;20088;-78
2022/07/29 03:17:02;;;;;;;3.15;1.42;;;15.50;99.90;;;;;;5001820;28;20128;-77
2022/07/29 03:19:28;;;;;;;4.93;1.52;;;15.50;99.90;;;;;;5003301;28;20064;-78
2022/07/29 03:21:57;;;;;;;2.97;1.60;;;15.50;99.90;;;;;;4992336;28;20104;-77
2022/07/29 03:24:34;;;;;;;5.43;1.90;;;15.50;99.90;;;;;;5002756;28;20050;-78
2022/07/29 03:27:00;;;;;;;2.60;1.30;;;15.50;99.90;;;;;;4999804;28;20100;-78
2022/07/29 03:29:26;;;;;;;4.55;1.73;;;15.50;99.90;;;;;;5001548;28;20181;-78
2022/07/29 03:31:52;;;;;;;4.68;1.73;;;15.50;99.90;;;;;;4991507;28;20038;-79
2022/07/29 03:34:18;;;;;;;3.65;1.55;;;15.50;99.90;;;;;;4987095;28;20062;-78
2022/07/29 03:36:44;;;;;;;3.17;1.35;;;15.50;99.90;;;;;;5011603;28;20046;-78
2022/07/29 03:39:11;;;;;;;4.03;1.55;;;15.50;99.90;;;;;;4972216;28;20111;-78
2022/07/29 03:41:41;;;;;;;3.58;1.58;;;15.50;99.90;;;;;;4983640;28;20129;-77
2022/07/29 03:44:08;;;;;;;3.47;1.40;;;15.40;99.90;;;;;;5018939;28;20510;-78
2022/07/29 03:46:35;;;;;;;4.38;1.70;;;15.40;99.90;;;;;;4970665;28;20084;-78
2022/07/29 03:49:03;;;;;;;2.90;1.63;;;15.40;99.90;;;;;;4986677;28;20521;-78
2022/07/29 03:51:30;;;;;;;4.68;1.60;;;15.40;99.90;;;;;;4982703;28;20122;-78
2022/07/29 03:53:56;;;;;;;3.55;1.60;;;15.40;99.90;;;;;;4983399;28;20050;-78
2022/07/29 03:56:24;;;;;;;4.22;1.63;;;15.40;99.90;;;;;;4973308;28;20053;-79
2022/07/29 03:58:52;;;;;;;5.43;1.77;;;15.40;99.90;;;;;;4992713;28;20038;-79
2022/07/29 04:01:18;;;;;;;5.05;1.40;;;15.40;99.90;;;;;;4992082;28;20112;-79
2022/07/29 04:03:45;;;;;;;3.85;1.50;;;15.30;99.90;;;;;;4991613;28;20148;-78
2022/07/29 04:06:11;;;;;;;3.20;1.50;;;15.30;99.90;;;;;;4985357;28;20042;-78
2022/07/29 04:08:37;;;;;;;4.65;1.88;;;15.40;99.90;;;;;;4987753;28;20060;-78
2022/07/29 04:11:04;;;;;;;2.60;1.50;;;15.30;99.90;;;;;;4976821;28;20466;-78
2022/07/29 04:13:31;;;;;;;3.25;1.52;;;15.40;99.90;;;;;;4977515;28;20057;-78
2022/07/29 04:15:57;;;;;;;2.63;1.40;;;15.40;99.90;;;;;;4991485;28;20057;-78
2022/07/29 04:18:23;;;;;;;4.82;2.08;;;15.40;99.90;;;;;;5001616;28;20395;-77
2022/07/29 04:20:49;;;;;;;3.65;1.73;;;15.40;99.90;;;;;;4984527;28;20049;-78
2022/07/29 04:23:15;;;;;;;5.20;1.63;;;15.40;99.90;;;;;;4986066;28;20502;-79
2022/07/29 04:25:42;;;;;;;2.70;1.38;;;15.40;99.90;;;;;;5017926;28;20055;-78
2022/07/29 04:28:09;;;;;;;2.50;1.30;;;15.40;99.90;;;;;;4992647;28;20088;-78
2022/07/29 04:30:36;;;;;;;2.67;1.23;;;15.50;99.90;;;;;;5002490;28;20077;-79
2022/07/29 04:33:03;;;;;;;2.33;1.17;;;15.50;99.90;;;;;;4991101;28;20050;-78
2022/07/29 04:35:30;;;;;;;2.65;1.40;;;15.50;99.90;;;;;;5005247;28;20861;-78
2022/07/29 04:37:56;;;;;;;3.33;1.50;;;15.60;99.90;;;;;;4977911;28;20136;-79
2022/07/29 04:40:22;;;;;;;4.22;1.90;;;15.60;99.90;;;;;;4978089;28;20471;-79
2022/07/29 04:42:48;;;;;;;4.32;1.50;;;15.60;99.90;;;;;;5001091;28;20102;-78
2022/07/29 04:45:14;;;;;;;3.33;1.30;;;15.60;99.90;;;;;;4977563;28;20407;-78
2022/07/29 04:47:40;;;;;;;3.50;1.30;;;15.70;99.90;;;;;;4983389;28;20081;-78
2022/07/29 04:50:07;;;;;;;3.70;1.48;;;15.70;99.90;;;;;;4991357;28;20156;-79
2022/07/29 04:52:34;;;;;;;5.55;1.77;;;15.80;99.90;;;;;;4986588;28;20049;-78
2022/07/29 04:55:00;;;;;;;7.18;1.60;;;15.80;99.90;;;;;;5004340;28;20053;-78
2022/07/29 04:57:26;;;;;;;3.28;1.30;;;15.80;99.90;;;;;;4991368;28;20053;-77
2022/07/29 04:59:51;;;;;;;3.55;1.42;;;15.90;99.90;;;;;;4969018;28;20049;-78
2022/07/29 05:02:17;;;;;;;3.25;1.45;;;15.90;99.90;;;;;;4988741;28;20125;-78
2022/07/29 05:04:43;;;;;;;5.28;1.42;;;15.90;99.90;;;;;;4976682;28;20052;-77
2022/07/29 05:07:09;;;;;;;2.60;1.17;;;16.00;99.90;;;;;;4981196;28;20085;-78
2022/07/29 05:09:34;;;;;;;2.33;1.25;;;16.00;99.90;;;;;;4994155;28;20493;-78
2022/07/29 05:12:00;;;;;;;3.50;1.13;;;16.10;99.90;;;;;;4990638;28;20172;-78
2022/07/29 05:14:26;;;;;;;2.70;1.23;;;16.10;99.90;;;;;;5003864;28;20045;-78
2022/07/29 05:16:52;;;;;;;3.38;1.27;;;16.20;99.90;;;;;;4971026;28;20045;-77
2022/07/29 05:19:18;;;;;;;3.65;1.25;;;16.20;99.90;;;;;;4994374;28;20053;-78
2022/07/29 05:21:47;;;;;;;3.28;1.30;;;16.20;99.90;;;;;;5003773;28;20042;-78
2022/07/29 05:24:13;;;;;;;3.97;1.40;;;16.30;99.90;;;;;;4995535;28;20124;-78
2022/07/29 05:26:39;;;;;;;4.90;1.50;;;16.30;99.90;;;;;;4987261;28;20052;-78
2022/07/29 05:29:05;;;;;;;2.35;1.25;;;16.30;99.90;;;;;;4988448;28;20053;-78
2022/07/29 05:31:31;;;;;;;2.53;1.10;;;16.30;99.90;;;;;;4973159;28;20069;-78
2022/07/29 05:33:56;;;;;;;2.88;1.27;;;16.30;99.90;;;;;;4998155;28;20045;-78
2022/07/29 05:36:22;;;;;;;2.25;1.13;;;16.40;99.90;;;;;;5006578;28;20049;-80
2022/07/29 05:38:48;;;;;;;4.07;1.42;;;16.40;99.90;;;;;;5012613;28;20061;-78
2022/07/29 05:41:14;;;;;;;4.78;1.23;;;16.50;99.90;;;;;;5002334;28;20053;-78
2022/07/29 05:43:39;;;;;;;3.17;1.27;;;16.50;99.90;;;;;;5004125;28;20044;-80
2022/07/29 05:46:05;;;;;;;2.72;1.20;;;16.50;99.90;;;;;;4980873;28;20106;-80
2022/07/29 05:48:32;;;;;;;2.90;1.27;;;16.60;99.90;;;;;;4971849;28;20406;-82
2022/07/29 05:50:57;;;;;;;3.45;1.20;;;16.60;99.90;;;;;;4978759;28;20444;-82
2022/07/29 05:53:23;;;;;;;2.42;1.10;;;16.70;99.90;;;;;;4996814;28;20075;-81
2022/07/29 05:55:50;;;;;;;4.57;1.30;;;16.80;99.90;;;;;;4997216;28;20052;-83
2022/07/29 05:58:17;;;;;;;4.32;1.40;;;16.90;99.90;;;;;;5000159;28;20049;-84
2022/07/29 06:00:44;;;;;;;2.25;0.98;;;17.00;99.90;;;;;;4990289;28;20045;-84
2022/07/29 06:03:10;;;;;;;2.88;1.30;;;17.10;99.90;;;;;;5000786;28;20037;-84
2022/07/29 06:05:35;;;;;;;3.42;1.27;;;17.20;99.90;;;;;;4991122;28;20045;-85
2022/07/29 06:08:01;;;;;;;5.40;1.67;;;17.30;99.90;;;;;;5003837;28;20545;-84
2022/07/29 06:10:28;;;;;;;3.83;1.30;;;17.40;99.90;;;;;;4997542;28;20072;-84
2022/07/29 06:12:54;;;;;;;5.72;1.25;;;16.90;99.90;;;;;;4965146;28;20052;-83
2022/07/29 06:15:20;;;;;;;2.42;1.13;;;17.40;99.90;;;;;;5003287;28;20060;-84
2022/07/29 06:17:47;;;;;;;3.30;1.00;;;17.50;99.90;;;;;;4997232;28;20050;-84
2022/07/29 06:20:13;;;;;;;3.90;1.33;;;17.60;99.90;;;;;;4995123;28;20061;-83
2022/07/29 06:22:39;;;;;;;2.65;1.30;;;17.60;99.90;;;;;;4980950;28;20136;-84
2022/07/29 06:25:05;;;;;;;3.63;1.30;;;17.70;99.90;;;;;;4988164;28;20050;-84
2022/07/29 06:27:31;;;;;;;3.63;1.05;;;17.70;99.90;;;;;;4977879;28;20048;-83
2022/07/29 06:29:57;;;;;;;2.13;1.23;;;17.80;99.90;;;;;;4976768;28;20041;-85
2022/07/29 06:32:22;;;;;;;1.85;1.08;;;17.90;99.90;;;;;;4963363;28;20038;-84
2022/07/29 06:34:48;;;;;;;2.88;1.25;;;17.90;99.90;;;;;;4977931;28;20060;-83
2022/07/29 06:37:14;;;;;;;3.58;1.42;;;18.00;99.90;;;;;;4988558;28;20136;-84
2022/07/29 06:39:40;;;;;;;3.60;1.15;;;18.00;99.90;;;;;;4993400;28;20180;-84
2022/07/29 06:42:08;;;;;;;2.75;1.15;;;18.00;99.90;;;;;;4962027;28;20076;-82
2022/07/29 06:44:34;;;;;;;1.98;0.98;;;18.10;99.90;;;;;;4982722;28;20422;-84
2022/07/29 06:47:05;;;;;;;2.80;1.20;;;18.10;99.90;;;;;;4979302;28;20041;-87
2022/07/29 06:49:31;;;;;;;2.95;1.20;;;18.20;99.90;;;;;;4993793;28;20045;-85
2022/07/29 06:51:56;;;;;;;2.65;1.50;;;18.20;99.90;;;;;;4973352;28;20045;-84
2022/07/29 06:54:28;;;;;;;1.75;1.10;;;18.20;99.90;;;;;;4994210;28;20049;-83
2022/07/29 06:56:54;;;;;;;3.95;1.20;;;18.20;99.90;;;;;;4988000;28;20498;-82
2022/07/29 06:59:19;;;;;;;1.85;1.00;;;18.30;99.90;;;;;;4985896;28;20103;-82
2022/07/29 07:01:45;;;;;;;2.75;1.20;;;17.40;99.90;;;;;;4970519;28;20041;-83
2022/07/29 07:04:12;;;;;;;3.20;1.30;;;18.40;99.90;;;;;;4990872;28;20136;-85
2022/07/29 07:06:38;;;;;;;2.75;1.10;;;18.40;99.90;;;;;;5003775;28;20045;-82
2022/07/29 07:09:04;;;;;;;5.85;1.58;;;18.50;99.90;;;;;;4990452;28;20049;-84
2022/07/29 07:11:30;;;;;;;4.88;1.38;;;18.50;99.90;;;;;;4990149;28;20384;-81
2022/07/29 07:13:56;;;;;;;4.13;1.40;;;18.50;99.90;;;;;;4989740;28;20167;-83
2022/07/29 07:16:22;;;;;;;4.78;1.45;;;18.60;99.90;;;;;;4990932;28;20568;-81
2022/07/29 07:18:48;;;;;;;3.42;1.25;;;18.60;99.90;;;;;;4982659;28;20053;-82
2022/07/29 07:21:13;;;;;;;2.97;1.02;;;18.70;99.90;;;;;;4983208;28;20057;-82
2022/07/29 07:23:39;;;;;;;3.35;1.20;;;18.70;99.90;;;;;;4982332;28;20041;-81
2022/07/29 07:26:05;;;;;;;5.97;1.15;;;18.70;99.90;;;;;;4979012;28;20041;-83
2022/07/29 07:28:31;;;;;;;2.97;1.20;;;18.80;99.90;;;;;;4956431;28;20053;-82
2022/07/29 07:30:57;;;;;;;5.28;1.40;;;18.80;99.90;;;;;;4999561;28;20476;-82
2022/07/29 07:33:23;;;;;;;3.53;1.50;;;18.80;99.90;;;;;;4992087;28;20104;-81
2022/07/29 07:35:48;;;;;;;3.72;1.13;;;18.90;99.90;;;;;;4987334;28;20085;-83
2022/07/29 07:38:14;;;;;;;3.28;1.15;;;18.90;99.90;;;;;;4988299;28;20131;-83
2022/07/29 07:40:40;;;;;;;2.22;0.88;;;19.00;99.90;;;;;;4966341;28;20069;-82
2022/07/29 07:43:06;;;;;;;3.72;1.55;;;19.00;99.90;;;;;;4966102;28;20503;-88
2022/07/29 07:45:32;;;;;;;3.40;1.20;;;19.10;99.90;;;;;;5001839;28;20052;-86
2022/07/29 07:47:58;;;;;;;2.03;0.90;;;19.10;99.90;;;;;;4985541;28;20483;-84
2022/07/29 07:50:24;;;;;;;3.60;1.35;;;19.20;99.90;;;;;;4964981;28;20038;-86
2022/07/29 07:52:53;;;;;;;4.90;1.42;;;19.20;99.90;;;;;;4969714;28;20042;-83
2022/07/29 07:55:19;;;;;;;3.72;1.25;;;19.30;99.90;;;;;;4988642;28;20135;-82
2022/07/29 07:57:45;;;;;;;3.17;1.30;;;19.30;99.90;;;;;;4974467;28;20045;-82
2022/07/29 08:00:14;;;;;;;4.35;1.50;;;19.40;99.90;;;;;;4989355;28;20057;-81
2022/07/29 08:02:40;;;;;;;3.00;1.23;;;19.40;99.90;;;;;;4984536;28;20071;-81
2022/07/29 08:05:10;;;;;;;3.80;1.10;;;19.50;99.90;;;;;;5009716;28;20041;-81
2022/07/29 08:07:36;;;;;;;5.03;1.60;;;19.50;99.90;;;;;;4983373;28;20582;-79
2022/07/29 08:10:02;;;;;;;4.75;1.45;;;19.50;99.90;;;;;;5017172;28;20057;-79
2022/07/29 08:12:28;;;;;;;4.60;1.30;;;19.60;99.90;;;;;;4986142;28;20100;-79
2022/07/29 08:14:54;;;;;;;2.75;1.08;;;19.70;99.90;;;;;;5018580;28;20052;-79
2022/07/29 08:17:20;;;;;;;2.88;1.38;;;19.70;99.90;;;;;;4984793;28;20447;-80
2022/07/29 08:19:47;;;;;;;6.40;1.35;;;19.70;99.90;;;;;;4982758;28;20038;-80
2022/07/29 08:22:13;;;;;;;3.15;1.25;;;19.70;99.90;;;;;;4981242;28;20117;-80
2022/07/29 08:24:52;;;;;;;4.22;1.15;;;19.80;99.90;;;;;;4972845;28;20207;-79
2022/07/29 08:27:20;;;;;;;2.63;1.10;;;19.90;99.90;;;;;;4972905;28;20255;-81
2022/07/29 08:29:46;;;;;;;2.88;1.30;;;20.00;99.90;;;;;;4988150;28;20380;-79
2022/07/29 08:32:12;;;;;;;4.70;1.17;;;20.00;99.90;;;;;;4966596;28;20057;-79
2022/07/29 08:34:38;;;;;;;2.88;1.17;;;20.10;99.90;;;;;;4991352;28;20046;-78
2022/07/29 08:37:04;;;;;;;2.55;1.08;;;20.20;99.90;;;;;;4970934;28;20407;-79
2022/07/29 08:39:29;;;;;;;2.42;1.23;;;20.30;99.90;;;;;;4976904;28;20126;-81
2022/07/29 08:41:55;;;;;;;5.65;1.40;;;20.40;99.90;;;;;;4981229;28;20119;-81
2022/07/29 08:44:21;;;;;;;4.90;1.75;;;20.40;99.90;;;;;;4995998;28;20578;-82
2022/07/29 08:46:49;;;;;;;3.25;1.10;;;20.50;99.90;;;;;;4996530;28;20041;-84
2022/07/29 08:49:15;;;;;;;4.45;1.23;;;20.60;99.90;;;;;;4978722;28;20060;-81
2022/07/29 08:51:42;;;;;;;4.60;1.30;;;20.60;99.90;;;;;;4988235;28;20056;-81
2022/07/29 08:54:16;;;;;;;5.53;1.50;;;20.60;99.90;;;;;;4979009;28;20111;-81
2022/07/29 08:56:42;;;;;;;2.72;1.30;;;20.60;99.90;;;;;;5006985;28;20041;-80
2022/07/29 08:59:09;;;;;;;4.80;1.35;;;20.60;99.90;;;;;;4985703;28;20049;-84
2022/07/29 09:01:39;;;;;;;8.45;1.52;;;20.60;99.90;;;;;;4996391;28;20136;-84
2022/07/29 09:04:11;;;;;;;3.45;1.33;;;20.70;99.90;;;;;;5002780;28;20045;-80
2022/07/29 09:06:41;;;;;;;4.93;1.10;;;20.60;99.90;;;;;;5008006;28;20053;-82
2022/07/29 09:09:08;;;;;;;4.30;1.20;;;20.60;99.90;;;;;;4992596;28;20053;-81
2022/07/29 09:11:34;;;;;;;3.35;0.95;;;20.60;99.90;;;;;;4988525;28;20131;-84
2022/07/29 09:14:00;;;;;;;3.53;1.25;;;20.60;99.90;;;;;;4987780;28;20053;-83
2022/07/29 09:16:25;;;;;;;3.58;1.20;;;20.50;99.90;;;;;;4961388;28;20045;-80
2022/07/29 09:18:51;;;;;;;3.47;1.58;;;20.50;99.90;;;;;;4978659;28;20042;-80
2022/07/29 09:24:11;;;;;;;3.28;1.20;;;20.50;99.90;;;;;;5004946;28;20041;-79
2022/07/29 09:26:45;;;;;;;4.07;1.10;;;20.60;99.90;;;;;;4994712;28;20057;-79
2022/07/29 09:29:15;;;;;;;4.43;1.40;;;20.50;99.90;;;;;;4988702;28;20103;-79
2022/07/29 09:31:43;;;;;;;4.50;1.20;;;20.50;99.90;;;;;;5006114;28;20107;-79
2022/07/29 09:34:10;;;;;;;2.95;1.13;;;20.40;99.90;;;;;;5004620;28;20049;-79
2022/07/29 09:36:45;;;;;;;2.75;1.20;;;20.40;99.90;;;;;;5004385;28;20348;-78
2022/07/29 09:39:12;;;;;;;3.55;1.23;;;20.40;99.90;;;;;;5005269;28;20058;-78
2022/07/29 09:41:53;;;;;;;3.40;1.40;;;20.40;99.90;;;;;;4974417;28;20045;-78
2022/07/29 09:44:19;;;;;;;6.28;1.40;;;20.40;99.90;;;;;;4988245;28;20054;-78
2022/07/29 09:47:05;;;;;;;4.55;1.27;;;20.40;99.90;;;;;;5003090;28;20049;-78
2022/07/29 09:49:50;;;;;;;3.88;1.48;;;20.50;99.90;;;;;;5004458;28;20416;-79
2022/07/29 09:52:16;;;;;;;4.07;1.33;;;20.40;99.90;;;;;;4986243;28;20077;-80
2022/07/29 09:54:42;;;;;;;4.22;1.42;;;20.30;99.90;;;;;;5002420;28;20412;-79
2022/07/29 09:57:20;;;;;;;3.60;1.50;;;20.40;99.90;;;;;;4987536;28;20061;-77
2022/07/29 10:00:06;;;;;;;3.88;1.50;;;20.40;99.90;;;;;;5006907;28;20145;-78
2022/07/29 10:02:34;;;;;;;4.18;1.20;;;20.40;99.90;;;;;;5003788;28;20045;-78
2022/07/29 10:05:01;;;;;;;5.65;1.50;;;20.40;99.90;;;;;;4996205;28;20088;-80
2022/07/29 10:07:53;;;;;;;3.53;1.65;;;20.40;99.90;;;;;;5004192;28;20086;-79
2022/07/29 10:10:21;;;;;;;7.25;1.85;;;20.40;99.90;;;;;;5004474;28;21083;-81
2022/07/29 10:12:54;;;;;;;8.05;1.63;;;20.40;99.90;;;;;;4989038;28;20115;-81
2022/07/29 10:15:26;;;;;;;6.20;1.75;;;20.40;99.90;;;;;;4989869;28;20491;-79
2022/07/29 10:17:53;;;;;;;6.30;1.83;;;20.40;99.90;;;;;;5004306;28;20100;-80
2022/07/29 10:20:20;;;;;;;6.50;1.40;;;20.40;99.90;;;;;;4979663;28;20119;-81
2022/07/29 10:22:49;;;;;;;6.72;1.73;;;20.40;99.90;;;;;;4988819;28;20049;-81
2022/07/29 10:25:16;;;;;;;5.18;1.55;;;20.40;99.90;;;;;;4972424;28;20080;-80
2022/07/29 10:27:44;;;;;;;3.88;1.30;;;20.40;99.90;;;;;;4989129;28;20224;-79
2022/07/29 10:30:11;;;;;;;3.05;1.50;;;20.40;99.90;;;;;;4985961;28;20129;-80
2022/07/29 10:32:45;;;;;;;5.78;1.50;;;20.40;99.90;;;;;;4987162;28;20556;-80
2022/07/29 10:35:42;;;;;;;4.07;1.40;;;20.40;99.90;;;;;;4994904;28;20098;-79
2022/07/29 10:38:35;;;;;;;5.88;1.35;;;20.30;99.90;;;;;;4999345;28;20103;-80
2022/07/29 10:41:28;;;;;;;6.85;1.67;;;20.30;99.90;;;;;;5011828;28;20060;-80
2022/07/29 10:44:18;;;;;;;4.10;1.42;;;20.20;99.90;;;;;;4987464;28;20049;-79
2022/07/29 10:46:45;;;;;;;5.25;1.40;;;20.20;99.90;;;;;;4990340;28;20049;-79
2022/07/29 10:49:11;;;;;;;4.70;1.40;;;20.20;99.90;;;;;;5019024;28;20096;-81
2022/07/29 10:51:54;;;;;;;5.32;1.73;;;20.10;99.90;;;;;;4990920;28;20053;-78
2022/07/29 10:54:35;;;;;;;4.70;1.77;;;20.10;99.90;;;;;;4991060;28;20523;-81
2022/07/29 10:57:18;;;;;;;4.55;1.50;;;20.10;99.90;;;;;;5009110;28;20062;-79
2022/07/29 11:00:10;;;;;;;3.47;1.48;;;20.00;99.90;;;;;;5004989;28;20054;-79
2022/07/29 11:02:36;;;;;;;5.82;2.00;;;20.00;99.90;;;;;;4993747;28;20045;-79
2022/07/29 11:05:04;;;;;;;4.30;1.90;;;20.00;99.90;;;;;;4986636;28;20100;-80
2022/07/29 11:07:30;;;;;;;5.45;1.73;;;20.00;99.90;;;;;;4985751;28;20140;-79
2022/07/29 11:10:15;;;;;;;4.15;1.67;;;20.00;99.90;;;;;;4978958;28;20077;-80
2022/07/29 11:12:43;;;;;;;6.80;2.00;;;20.00;99.90;;;;;;4986401;28;20501;-80
2022/07/29 11:15:16;;;;;;;4.85;1.92;;;20.00;99.90;;;;;;5001848;28;20054;-79
2022/07/29 11:17:58;;;;;;;8.23;2.38;;;20.00;99.90;;;;;;5017436;28;20052;-80
2022/07/29 11:20:41;;;;;;;5.63;2.05;;;20.00;99.90;;;;;;5003248;28;20045;-81
2022/07/29 11:23:39;;;;;;;5.65;1.95;;;19.90;99.90;;;;;;5002073;28;20045;-80
2022/07/29 11:26:12;;;;;;;4.63;1.80;;;19.90;99.90;;;;;;5009291;28;20111;-81
2022/07/29 11:28:51;;;;;;;6.68;2.00;;;19.90;99.90;;;;;;4993194;28;20049;-80
2022/07/29 11:31:42;;;;;;;5.18;1.92;;;19.90;99.90;;;;;;5001539;28;20053;-79
2022/07/29 11:34:32;;;;;;;4.68;1.70;;;19.90;99.90;;;;;;4996482;28;20255;-79
2022/07/29 11:37:09;;;;;;;5.35;2.08;;;20.00;99.90;;;;;;4986146;28;20062;-80
2022/07/29 11:39:37;;;;;;;8.30;2.10;;;20.00;99.90;;;;;;4991508;28;20133;-80
2022/07/29 11:42:28;;;;;;;6.88;2.05;;;20.00;99.90;;;;;;4992829;28;20111;-80
2022/07/29 11:45:05;;;;;;;8.52;2.38;;;20.10;99.90;;;;;;4965703;28;20065;-80
2022/07/29 11:47:46;;;;;;;7.47;2.05;;;20.10;99.90;;;;;;5002088;28;20054;-79
2022/07/29 11:50:14;;;;;;;6.10;2.20;;;20.10;99.90;;;;;;4992112;28;20056;-79
2022/07/29 11:52:49;;;;;;;4.35;1.80;;;20.20;99.90;;;;;;4993530;28;20053;-81
2022/07/29 11:55:17;;;;;;;6.47;2.03;;;20.20;99.90;;;;;;4986953;28;20085;-80
2022/07/29 11:57:55;;;;;;;4.55;2.00;;;20.20;99.90;;;;;;4978418;28;20081;-80
2022/07/29 12:00:25;;;;;;;5.75;2.03;;;20.30;99.90;;;;;;5004307;28;20046;-80
2022/07/29 12:02:51;;;;;;;8.77;2.42;;;20.30;99.90;;;;;;4990950;28;20045;-81
2022/07/29 12:05:18;;;;;;;7.32;1.90;;;20.40;99.90;;;;;;5023743;28;20053;-81
2022/07/29 12:07:44;;;;;;;4.57;2.30;;;20.50;99.90;;;;;;4986834;28;20053;-81
2022/07/29 12:10:10;;;;;;;6.95;1.90;;;20.50;99.90;;;;;;4970472;28;20140;-81
2022/07/29 12:12:38;;;;;;;6.95;2.00;;;20.60;99.90;;;;;;4991276;28;20133;-83
2022/07/29 12:15:20;;;;;;;6.05;2.13;;;20.70;99.90;;;;;;5002071;28;20111;-83
2022/07/29 12:17:47;;;;;;;5.97;2.10;;;20.80;99.90;;;;;;5000684;28;20045;-81
2022/07/29 12:20:13;;;;;;;9.75;2.17;;;20.90;99.90;;;;;;4975487;28;20049;-83
2022/07/29 12:22:41;;;;;;;4.78;1.92;;;21.00;99.90;;;;;;4985080;28;20129;-85
2022/07/29 12:25:11;;;;;;;5.72;2.00;;;21.10;99.90;;;;;;4976154;28;20149;-81
2022/07/29 12:27:38;;;;;;;5.72;1.70;;;21.20;99.90;;;;;;4984281;28;20057;-81
2022/07/29 12:30:18;;;;;;;4.55;1.80;;;21.30;99.90;;;;;;4970008;28;20138;-82
2022/07/29 12:32:46;;;;;;;7.53;2.33;;;21.50;99.90;;;;;;4985097;28;20045;-82
2022/07/29 12:35:15;;;;;;;5.95;2.10;;;21.70;99.90;;;;;;4986146;28;20057;-82
2022/07/29 12:37:43;;;;;;;4.68;1.90;;;21.90;99.90;;;;;;4989529;28;20049;-82
2022/07/29 12:40:12;;;;;;;6.07;1.98;;;22.00;99.90;;;;;;4984564;28;20127;-79
2022/07/29 12:42:39;;;;;;;8.65;2.50;;;22.50;99.90;;;;;;4992274;28;20089;-80
2022/07/29 12:45:05;;;;;;;5.47;2.10;;;23.30;99.90;;;;;;4993230;28;20099;-80
2022/07/29 12:47:32;;;;;;;5.75;1.75;;;24.10;99.90;;;;;;4984366;28;20133;-82
2022/07/29 12:50:14;;;;;;;4.60;1.80;;;24.90;99.90;;;;;;5000706;28;20046;-81
2022/07/29 12:52:39;;;;;;;4.10;1.63;;;25.70;99.90;;;;;;5016144;28;20056;-81
2022/07/29 12:55:06;;;;;;;4.28;1.83;;;26.20;99.90;;;;;;4991669;28;20053;-80
2022/07/29 12:57:43;;;;;;;4.57;1.70;;;26.80;99.90;;;;;;4967762;28;20050;-82
2022/07/29 13:00:12;;;;;;;4.13;1.80;;;27.40;99.90;;;;;;5002346;28;20065;-81
2022/07/29 13:02:39;;;;;;;4.72;1.80;;;27.70;98.70;;;;;;4984684;28;20045;-82
2022/07/29 13:05:06;;;;;;;4.97;1.77;;;28.20;98.20;;;;;;4976915;28;20050;-81
2022/07/29 13:07:35;;;;;;;3.38;1.50;;;28.60;97.40;;;;;;4975730;28;20503;-83